Terminal Aerodrome Forecast
Issued by NWS

Home | Current Version | Previous Version | Text Only | Print | Product List | Glossary On
Versions: 1 2 3 4 5 6 7 8 9 10 11 12 13 14 15
000
FTUS44 KLZK 291600 AAB
TAFADF
TAF AMD
KADF 291611Z 2916/3012 00000KT P6SM OVC015
     FM291800 18010G18KT P6SM SCT025 BKN250
     FM300100 VRB06KT P6SM VCSH BKN040 PROB30 3003/3009 -TSRA
      BKN025CB
     FM301000 01008KT P6SM VCSH BKN030=

USA.gov is the U.S. government's official web portal to all federal, state and local government web resources and services.